sensor_id;sensor_type;location;lat;lon;timestamp;temperature;humidity
74220;DHT22;62580;54.416;11.120;2022-09-11T00:03:05;22.30;65.80
74220;DHT22;62580;54.416;11.120;2022-09-11T00:13:08;22.20;65.60
74220;DHT22;62580;54.416;11.120;2022-09-11T00:23:10;22.20;65.50
74220;DHT22;62580;54.416;11.120;2022-09-11T00:33:13;22.20;65.50
74220;DHT22;62580;54.416;11.120;2022-09-11T00:43:14;22.20;65.40
74220;DHT22;62580;54.416;11.120;2022-09-11T00:53:17;22.20;65.40
74220;DHT22;62580;54.416;11.120;2022-09-11T01:03:20;22.20;65.40
74220;DHT22;62580;54.416;11.120;2022-09-11T01:13:27;22.20;65.20
74220;DHT22;62580;54.416;11.120;2022-09-11T01:34:06;22.10;65.00
74220;DHT22;62580;54.416;11.120;2022-09-11T01:44:12;22.10;65.00
74220;DHT22;62580;54.416;11.120;2022-09-11T01:54:18;22.10;64.90
74220;DHT22;62580;54.416;11.120;2022-09-11T02:04:21;22.10;64.90
74220;DHT22;62580;54.416;11.120;2022-09-11T02:14:28;22.10;64.80
74220;DHT22;62580;54.416;11.120;2022-09-11T02:24:30;22.10;64.70
74220;DHT22;62580;54.416;11.120;2022-09-11T02:34:34;22.10;64.70
74220;DHT22;62580;54.416;11.120;2022-09-11T02:44:38;22.10;64.70
74220;DHT22;62580;54.416;11.120;2022-09-11T02:54:51;22.10;64.60
74220;DHT22;62580;54.416;11.120;2022-09-11T03:04:53;22.10;64.50
74220;DHT22;62580;54.416;11.120;2022-09-11T03:14:55;22.00;64.50
74220;DHT22;62580;54.416;11.120;2022-09-11T03:24:56;22.00;64.50
74220;DHT22;62580;54.416;11.120;2022-09-11T03:34:58;22.00;64.40
74220;DHT22;62580;54.416;11.120;2022-09-11T03:44:58;22.00;64.30
74220;DHT22;62580;54.416;11.120;2022-09-11T03:55:00;22.00;64.30
74220;DHT22;62580;54.416;11.120;2022-09-11T04:05:01;22.00;64.20
74220;DHT22;62580;54.416;11.120;2022-09-11T04:15:03;22.00;64.20
74220;DHT22;62580;54.416;11.120;2022-09-11T04:25:05;22.00;64.10
74220;DHT22;62580;54.416;11.120;2022-09-11T04:35:08;21.90;64.20
74220;DHT22;62580;54.416;11.120;2022-09-11T04:45:09;21.90;64.10
74220;DHT22;62580;54.416;11.120;2022-09-11T04:55:11;22.00;64.10
74220;DHT22;62580;54.416;11.120;2022-09-11T05:05:12;21.90;64.00
74220;DHT22;62580;54.416;11.120;2022-09-11T05:15:14;21.90;64.10
74220;DHT22;62580;54.416;11.120;2022-09-11T05:25:14;21.90;63.90
74220;DHT22;62580;54.416;11.120;2022-09-11T05:35:16;21.90;63.90
74220;DHT22;62580;54.416;11.120;2022-09-11T05:45:17;21.90;64.00
74220;DHT22;62580;54.416;11.120;2022-09-11T05:55:19;21.90;64.00
74220;DHT22;62580;54.416;11.120;2022-09-11T06:05:19;21.90;63.90
74220;DHT22;62580;54.416;11.120;2022-09-11T06:15:21;21.90;64.60
74220;DHT22;62580;54.416;11.120;2022-09-11T06:25:22;21.80;64.80
74220;DHT22;62580;54.416;11.120;2022-09-11T06:35:24;22.00;64.60
74220;DHT22;62580;54.416;11.120;2022-09-11T06:45:25;21.90;64.10
74220;DHT22;62580;54.416;11.120;2022-09-11T06:55:26;21.90;64.00
74220;DHT22;62580;54.416;11.120;2022-09-11T07:05:29;21.90;63.60
74220;DHT22;62580;54.416;11.120;2022-09-11T07:15:32;22.00;63.00
74220;DHT22;62580;54.416;11.120;2022-09-11T07:25:34;22.00;63.30
74220;DHT22;62580;54.416;11.120;2022-09-11T07:35:36;22.00;63.50
74220;DHT22;62580;54.416;11.120;2022-09-11T07:45:37;21.80;63.70
74220;DHT22;62580;54.416;11.120;2022-09-11T07:55:39;21.80;65.90
74220;DHT22;62580;54.416;11.120;2022-09-11T08:05:39;21.50;64.70
74220;DHT22;62580;54.416;11.120;2022-09-11T08:15:46;21.80;65.80
74220;DHT22;62580;54.416;11.120;2022-09-11T08:25:46;21.90;64.80
74220;DHT22;62580;54.416;11.120;2022-09-11T08:35:48;21.90;64.50
74220;DHT22;62580;54.416;11.120;2022-09-11T08:45:50;21.90;63.90
74220;DHT22;62580;54.416;11.120;2022-09-11T08:56:02;21.70;63.80
74220;DHT22;62580;54.416;11.120;2022-09-11T09:06:21;21.50;63.70
74220;DHT22;62580;54.416;11.120;2022-09-11T09:16:35;21.50;63.80
74220;DHT22;62580;54.416;11.120;2022-09-11T09:26:40;21.70;63.80
74220;DHT22;62580;54.416;11.120;2022-09-11T09:36:48;21.80;62.90
74220;DHT22;62580;54.416;11.120;2022-09-11T09:46:51;22.00;62.20
74220;DHT22;62580;54.416;11.120;2022-09-11T09:56:59;22.00;62.20
74220;DHT22;62580;54.416;11.120;2022-09-11T10:07:08;22.00;62.10
74220;DHT22;62580;54.416;11.120;2022-09-11T10:17:20;22.00;61.90
74220;DHT22;62580;54.416;11.120;2022-09-11T10:27:21;22.00;62.00
74220;DHT22;62580;54.416;11.120;2022-09-11T10:37:26;22.10;62.00
74220;DHT22;62580;54.416;11.120;2022-09-11T10:47:27;22.20;61.90
74220;DHT22;62580;54.416;11.120;2022-09-11T10:57:36;22.20;61.50
74220;DHT22;62580;54.416;11.120;2022-09-11T11:18:15;22.30;61.10
74220;DHT22;62580;54.416;11.120;2022-09-11T11:38:51;22.40;60.70
74220;DHT22;62580;54.416;11.120;2022-09-11T11:48:57;22.40;60.80
74220;DHT22;62580;54.416;11.120;2022-09-11T11:59:05;22.50;60.50
74220;DHT22;62580;54.416;11.120;2022-09-11T12:09:09;22.60;60.20
74220;DHT22;62580;54.416;11.120;2022-09-11T12:19:16;22.70;60.00
74220;DHT22;62580;54.416;11.120;2022-09-11T12:29:52;22.90;59.70
74220;DHT22;62580;54.416;11.120;2022-09-11T12:40:01;23.10;59.20
74220;DHT22;62580;54.416;11.120;2022-09-11T12:50:13;23.30;58.90
74220;DHT22;62580;54.416;11.120;2022-09-11T13:00:21;23.30;58.90
74220;DHT22;62580;54.416;11.120;2022-09-11T13:10:29;23.30;59.10
74220;DHT22;62580;54.416;11.120;2022-09-11T13:20:31;23.30;59.00
74220;DHT22;62580;54.416;11.120;2022-09-11T13:30:32;23.20;59.00
74220;DHT22;62580;54.416;11.120;2022-09-11T13:40:40;23.30;58.70
74220;DHT22;62580;54.416;11.120;2022-09-11T13:50:43;23.40;58.50
74220;DHT22;62580;54.416;11.120;2022-09-11T14:00:45;23.30;58.70
74220;DHT22;62580;54.416;11.120;2022-09-11T14:10:48;23.40;58.60
74220;DHT22;62580;54.416;11.120;2022-09-11T14:20:52;23.50;58.40
74220;DHT22;62580;54.416;11.120;2022-09-11T14:31:04;23.60;58.20
74220;DHT22;62580;54.416;11.120;2022-09-11T14:41:06;23.70;57.90
74220;DHT22;62580;54.416;11.120;2022-09-11T14:51:10;23.70;57.70
74220;DHT22;62580;54.416;11.120;2022-09-11T15:01:12;23.70;57.50
74220;DHT22;62580;54.416;11.120;2022-09-11T15:11:13;23.70;57.30
74220;DHT22;62580;54.416;11.120;2022-09-11T15:21:15;23.50;58.00
74220;DHT22;62580;54.416;11.120;2022-09-11T15:31:16;23.40;59.30
74220;DHT22;62580;54.416;11.120;2022-09-11T15:41:18;23.20;59.20
74220;DHT22;62580;54.416;11.120;2022-09-11T15:51:20;23.30;59.60
74220;DHT22;62580;54.416;11.120;2022-09-11T16:01:24;23.20;60.50
74220;DHT22;62580;54.416;11.120;2022-09-11T16:11:25;23.10;60.80
74220;DHT22;62580;54.416;11.120;2022-09-11T16:21:27;23.10;61.20
74220;DHT22;62580;54.416;11.120;2022-09-11T16:31:28;23.00;61.30
74220;DHT22;62580;54.416;11.120;2022-09-11T16:41:30;23.00;61.70
74220;DHT22;62580;54.416;11.120;2022-09-11T16:51:31;23.00;62.10
74220;DHT22;62580;54.416;11.120;2022-09-11T17:01:33;22.90;62.20
74220;DHT22;62580;54.416;11.120;2022-09-11T17:11:34;22.90;62.60
74220;DHT22;62580;54.416;11.120;2022-09-11T17:21:36;22.80;62.80
74220;DHT22;62580;54.416;11.120;2022-09-11T17:31:37;22.80;63.00
74220;DHT22;62580;54.416;11.120;2022-09-11T17:41:39;22.80;63.20
74220;DHT22;62580;54.416;11.120;2022-09-11T17:51:39;22.70;63.40
74220;DHT22;62580;54.416;11.120;2022-09-11T18:01:41;22.70;63.60
74220;DHT22;62580;54.416;11.120;2022-09-11T18:11:45;22.70;63.60
74220;DHT22;62580;54.416;11.120;2022-09-11T18:21:47;22.70;63.70
74220;DHT22;62580;54.416;11.120;2022-09-11T18:31:49;22.70;64.40
74220;DHT22;62580;54.416;11.120;2022-09-11T18:41:51;22.70;64.20
74220;DHT22;62580;54.416;11.120;2022-09-11T18:51:52;22.60;64.20
74220;DHT22;62580;54.416;11.120;2022-09-11T19:01:54;22.60;64.40
74220;DHT22;62580;54.416;11.120;2022-09-11T19:11:55;22.60;64.40
74220;DHT22;62580;54.416;11.120;2022-09-11T19:21:56;22.60;64.50
74220;DHT22;62580;54.416;11.120;2022-09-11T19:31:57;22.60;64.40
74220;DHT22;62580;54.416;11.120;2022-09-11T19:41:59;22.60;64.50
74220;DHT22;62580;54.416;11.120;2022-09-11T19:52:00;22.50;64.40
74220;DHT22;62580;54.416;11.120;2022-09-11T20:02:02;22.50;64.50
74220;DHT22;62580;54.416;11.120;2022-09-11T20:12:03;22.50;64.50
74220;DHT22;62580;54.416;11.120;2022-09-11T20:22:05;22.50;64.50
74220;DHT22;62580;54.416;11.120;2022-09-11T20:32:06;22.50;64.50
74220;DHT22;62580;54.416;11.120;2022-09-11T20:42:08;22.50;64.70
74220;DHT22;62580;54.416;11.120;2022-09-11T20:52:09;22.50;64.70
74220;DHT22;62580;54.416;11.120;2022-09-11T21:02:11;22.50;64.60
74220;DHT22;62580;54.416;11.120;2022-09-11T21:12:12;22.50;64.60
74220;DHT22;62580;54.416;11.120;2022-09-11T21:22:14;22.50;64.60
74220;DHT22;62580;54.416;11.120;2022-09-11T21:32:15;22.50;64.70
74220;DHT22;62580;54.416;11.120;2022-09-11T21:42:17;22.40;64.60
74220;DHT22;62580;54.416;11.120;2022-09-11T21:52:17;22.40;64.50
74220;DHT22;62580;54.416;11.120;2022-09-11T22:02:19;22.40;64.60
74220;DHT22;62580;54.416;11.120;2022-09-11T22:12:20;22.40;64.50
74220;DHT22;62580;54.416;11.120;2022-09-11T22:22:22;22.40;64.60
74220;DHT22;62580;54.416;11.120;2022-09-11T22:32:23;22.40;64.60
74220;DHT22;62580;54.416;11.120;2022-09-11T22:42:25;22.30;64.50
74220;DHT22;62580;54.416;11.120;2022-09-11T22:52:25;22.40;64.60
74220;DHT22;62580;54.416;11.120;2022-09-11T23:02:27;22.30;64.50
74220;DHT22;62580;54.416;11.120;2022-09-11T23:12:28;22.30;64.50
74220;DHT22;62580;54.416;11.120;2022-09-11T23:22:30;22.30;64.50
74220;DHT22;62580;54.416;11.120;2022-09-11T23:32:31;22.30;64.40
74220;DHT22;62580;54.416;11.120;2022-09-11T23:42:33;22.30;64.50
74220;DHT22;62580;54.416;11.120;2022-09-11T23:52:34;22.30;64.40
